sensor_id;sensor_type;location;lat;lon;timestamp;temperature;humidity
52575;DHT22;38468;48.114;-1.684;2022-09-09T00:00:21;18.30;74.50
52575;DHT22;38468;48.114;-1.684;2022-09-09T00:02:28;18.20;74.60
52575;DHT22;38468;48.114;-1.684;2022-09-09T00:04:33;18.20;74.70
52575;DHT22;38468;48.114;-1.684;2022-09-09T00:06:52;18.30;74.80
52575;DHT22;38468;48.114;-1.684;2022-09-09T00:09:17;18.20;74.80
52575;DHT22;38468;48.114;-1.684;2022-09-09T00:11:24;18.20;74.90
52575;DHT22;38468;48.114;-1.684;2022-09-09T00:13:47;18.10;75.00
52575;DHT22;38468;48.114;-1.684;2022-09-09T00:16:21;18.10;75.40
52575;DHT22;38468;48.114;-1.684;2022-09-09T00:18:50;18.00;75.10
52575;DHT22;38468;48.114;-1.684;2022-09-09T00:21:19;18.00;75.20
52575;DHT22;38468;48.114;-1.684;2022-09-09T00:25:33;18.00;75.40
52575;DHT22;38468;48.114;-1.684;2022-09-09T00:27:41;18.00;75.20
52575;DHT22;38468;48.114;-1.684;2022-09-09T00:29:56;18.00;75.30
52575;DHT22;38468;48.114;-1.684;2022-09-09T00:32:14;18.00;75.40
52575;DHT22;38468;48.114;-1.684;2022-09-09T00:34:24;18.00;75.50
52575;DHT22;38468;48.114;-1.684;2022-09-09T00:36:27;18.00;75.60
52575;DHT22;38468;48.114;-1.684;2022-09-09T00:38:39;18.00;75.40
52575;DHT22;38468;48.114;-1.684;2022-09-09T00:47:46;18.00;75.70
52575;DHT22;38468;48.114;-1.684;2022-09-09T00:56:13;18.00;75.70
52575;DHT22;38468;48.114;-1.684;2022-09-09T00:58:15;18.00;75.70
52575;DHT22;38468;48.114;-1.684;2022-09-09T01:02:31;18.00;75.70
52575;DHT22;38468;48.114;-1.684;2022-09-09T01:04:36;18.00;75.80
52575;DHT22;38468;48.114;-1.684;2022-09-09T01:06:37;17.90;75.60
52575;DHT22;38468;48.114;-1.684;2022-09-09T01:08:43;17.80;75.70
52575;DHT22;38468;48.114;-1.684;2022-09-09T01:10:50;17.90;75.70
52575;DHT22;38468;48.114;-1.684;2022-09-09T01:12:55;17.90;75.80
52575;DHT22;38468;48.114;-1.684;2022-09-09T01:15:22;17.80;75.70
52575;DHT22;38468;48.114;-1.684;2022-09-09T01:17:31;17.80;75.90
52575;DHT22;38468;48.114;-1.684;2022-09-09T01:22:26;17.90;76.00
52575;DHT22;38468;48.114;-1.684;2022-09-09T01:26:56;18.00;75.70
52575;DHT22;38468;48.114;-1.684;2022-09-09T01:28:59;18.00;75.60
52575;DHT22;38468;48.114;-1.684;2022-09-09T01:31:00;18.00;75.70
52575;DHT22;38468;48.114;-1.684;2022-09-09T01:33:02;17.90;75.70
52575;DHT22;38468;48.114;-1.684;2022-09-09T01:35:04;17.80;75.60
52575;DHT22;38468;48.114;-1.684;2022-09-09T01:37:08;17.80;75.80
52575;DHT22;38468;48.114;-1.684;2022-09-09T01:39:11;17.70;76.00
52575;DHT22;38468;48.114;-1.684;2022-09-09T01:41:12;17.60;76.20
52575;DHT22;38468;48.114;-1.684;2022-09-09T01:43:13;17.80;76.30
52575;DHT22;38468;48.114;-1.684;2022-09-09T01:45:14;17.80;76.30
52575;DHT22;38468;48.114;-1.684;2022-09-09T01:47:15;17.90;76.10
52575;DHT22;38468;48.114;-1.684;2022-09-09T01:49:16;17.80;76.00
52575;DHT22;38468;48.114;-1.684;2022-09-09T01:51:17;17.80;76.30
52575;DHT22;38468;48.114;-1.684;2022-09-09T01:53:19;17.80;76.20
52575;DHT22;38468;48.114;-1.684;2022-09-09T01:55:41;17.90;76.30
52575;DHT22;38468;48.114;-1.684;2022-09-09T01:58:05;17.90;76.10
52575;DHT22;38468;48.114;-1.684;2022-09-09T02:00:10;17.90;76.20
52575;DHT22;38468;48.114;-1.684;2022-09-09T02:04:52;17.70;76.50
52575;DHT22;38468;48.114;-1.684;2022-09-09T02:06:56;17.80;76.50
52575;DHT22;38468;48.114;-1.684;2022-09-09T02:08:58;17.70;76.30
52575;DHT22;38468;48.114;-1.684;2022-09-09T02:11:06;17.70;76.40
52575;DHT22;38468;48.114;-1.684;2022-09-09T02:13:11;17.70;76.50
52575;DHT22;38468;48.114;-1.684;2022-09-09T02:15:30;17.80;76.50
52575;DHT22;38468;48.114;-1.684;2022-09-09T02:17:35;17.80;76.40
52575;DHT22;38468;48.114;-1.684;2022-09-09T02:19:44;17.80;76.50
52575;DHT22;38468;48.114;-1.684;2022-09-09T02:21:46;17.90;76.40
52575;DHT22;38468;48.114;-1.684;2022-09-09T02:23:48;17.80;76.50
52575;DHT22;38468;48.114;-1.684;2022-09-09T02:25:53;17.90;76.40
52575;DHT22;38468;48.114;-1.684;2022-09-09T02:27:56;17.90;76.20
52575;DHT22;38468;48.114;-1.684;2022-09-09T02:30:01;17.70;76.30
52575;DHT22;38468;48.114;-1.684;2022-09-09T02:32:06;17.70;76.40
52575;DHT22;38468;48.114;-1.684;2022-09-09T02:34:10;17.70;76.30
52575;DHT22;38468;48.114;-1.684;2022-09-09T02:36:15;17.50;76.30
52575;DHT22;38468;48.114;-1.684;2022-09-09T02:38:17;17.60;76.60
52575;DHT22;38468;48.114;-1.684;2022-09-09T02:40:19;17.60;76.50
52575;DHT22;38468;48.114;-1.684;2022-09-09T02:42:21;17.50;76.40
52575;DHT22;38468;48.114;-1.684;2022-09-09T02:44:22;17.50;76.40
52575;DHT22;38468;48.114;-1.684;2022-09-09T02:51:14;17.70;76.50
52575;DHT22;38468;48.114;-1.684;2022-09-09T02:53:18;17.70;76.10
52575;DHT22;38468;48.114;-1.684;2022-09-09T02:57:31;17.70;76.30
52575;DHT22;38468;48.114;-1.684;2022-09-09T02:59:33;17.80;76.40
52575;DHT22;38468;48.114;-1.684;2022-09-09T03:01:34;18.00;76.20
52575;DHT22;38468;48.114;-1.684;2022-09-09T03:03:35;17.90;75.90
52575;DHT22;38468;48.114;-1.684;2022-09-09T03:05:36;17.80;75.70
52575;DHT22;38468;48.114;-1.684;2022-09-09T03:07:37;17.80;76.00
52575;DHT22;38468;48.114;-1.684;2022-09-09T03:09:40;17.90;76.00
52575;DHT22;38468;48.114;-1.684;2022-09-09T03:11:41;17.90;76.10
52575;DHT22;38468;48.114;-1.684;2022-09-09T03:13:41;18.00;75.90
52575;DHT22;38468;48.114;-1.684;2022-09-09T03:15:42;17.90;75.70
52575;DHT22;38468;48.114;-1.684;2022-09-09T03:17:43;17.90;76.00
52575;DHT22;38468;48.114;-1.684;2022-09-09T03:19:44;17.90;76.00
52575;DHT22;38468;48.114;-1.684;2022-09-09T03:21:45;18.00;75.90
52575;DHT22;38468;48.114;-1.684;2022-09-09T03:23:46;17.90;75.70
52575;DHT22;38468;48.114;-1.684;2022-09-09T03:25:48;18.00;75.60
52575;DHT22;38468;48.114;-1.684;2022-09-09T03:27:49;17.80;75.60
52575;DHT22;38468;48.114;-1.684;2022-09-09T03:29:50;17.80;75.80
52575;DHT22;38468;48.114;-1.684;2022-09-09T03:31:51;17.80;75.80
52575;DHT22;38468;48.114;-1.684;2022-09-09T03:33:52;17.80;75.80
52575;DHT22;38468;48.114;-1.684;2022-09-09T03:35:52;17.70;76.20
52575;DHT22;38468;48.114;-1.684;2022-09-09T03:37:53;17.80;76.20
52575;DHT22;38468;48.114;-1.684;2022-09-09T03:39:55;17.80;76.10
52575;DHT22;38468;48.114;-1.684;2022-09-09T03:41:55;17.90;75.70
52575;DHT22;38468;48.114;-1.684;2022-09-09T03:43:56;17.80;75.80
52575;DHT22;38468;48.114;-1.684;2022-09-09T03:45:57;17.80;76.00
52575;DHT22;38468;48.114;-1.684;2022-09-09T03:47:57;17.80;76.10
52575;DHT22;38468;48.114;-1.684;2022-09-09T03:49:58;17.90;76.10
52575;DHT22;38468;48.114;-1.684;2022-09-09T03:51:59;17.90;75.90
52575;DHT22;38468;48.114;-1.684;2022-09-09T03:54:01;17.80;75.90
52575;DHT22;38468;48.114;-1.684;2022-09-09T03:56:02;17.80;76.00
52575;DHT22;38468;48.114;-1.684;2022-09-09T03:58:03;18.00;76.00
52575;DHT22;38468;48.114;-1.684;2022-09-09T04:00:05;18.00;76.10
52575;DHT22;38468;48.114;-1.684;2022-09-09T04:02:06;18.00;75.80
52575;DHT22;38468;48.114;-1.684;2022-09-09T04:04:07;18.00;75.60
52575;DHT22;38468;48.114;-1.684;2022-09-09T04:06:10;18.00;75.70
52575;DHT22;38468;48.114;-1.684;2022-09-09T04:08:13;17.90;75.70
52575;DHT22;38468;48.114;-1.684;2022-09-09T04:10:14;17.80;75.80
52575;DHT22;38468;48.114;-1.684;2022-09-09T04:12:16;17.80;75.90
52575;DHT22;38468;48.114;-1.684;2022-09-09T04:14:17;17.80;76.20
52575;DHT22;38468;48.114;-1.684;2022-09-09T04:16:17;17.70;76.20
52575;DHT22;38468;48.114;-1.684;2022-09-09T04:18:18;17.70;76.10
52575;DHT22;38468;48.114;-1.684;2022-09-09T04:20:19;17.80;76.20
52575;DHT22;38468;48.114;-1.684;2022-09-09T04:22:20;17.80;76.20
52575;DHT22;38468;48.114;-1.684;2022-09-09T04:24:22;17.90;76.00
52575;DHT22;38468;48.114;-1.684;2022-09-09T04:26:23;17.90;76.20
52575;DHT22;38468;48.114;-1.684;2022-09-09T04:28:25;17.80;76.10
52575;DHT22;38468;48.114;-1.684;2022-09-09T04:30:26;17.70;76.20
52575;DHT22;38468;48.114;-1.684;2022-09-09T04:32:27;17.70;76.10
52575;DHT22;38468;48.114;-1.684;2022-09-09T04:34:28;17.80;76.10
52575;DHT22;38468;48.114;-1.684;2022-09-09T04:36:30;17.80;76.20
52575;DHT22;38468;48.114;-1.684;2022-09-09T04:38:32;17.80;76.20
52575;DHT22;38468;48.114;-1.684;2022-09-09T04:40:32;17.70;76.30
52575;DHT22;38468;48.114;-1.684;2022-09-09T04:42:36;17.80;76.20
52575;DHT22;38468;48.114;-1.684;2022-09-09T04:44:37;17.80;76.20
52575;DHT22;38468;48.114;-1.684;2022-09-09T04:46:37;17.80;76.10
52575;DHT22;38468;48.114;-1.684;2022-09-09T04:48:38;17.80;76.40
52575;DHT22;38468;48.114;-1.684;2022-09-09T04:50:39;17.70;76.40
52575;DHT22;38468;48.114;-1.684;2022-09-09T04:52:43;17.80;76.60
52575;DHT22;38468;48.114;-1.684;2022-09-09T04:54:44;17.80;76.60
52575;DHT22;38468;48.114;-1.684;2022-09-09T04:56:46;17.80;76.40
52575;DHT22;38468;48.114;-1.684;2022-09-09T04:58:47;17.80;76.20
52575;DHT22;38468;48.114;-1.684;2022-09-09T05:00:48;17.70;76.50
52575;DHT22;38468;48.114;-1.684;2022-09-09T05:02:49;17.70;76.60
52575;DHT22;38468;48.114;-1.684;2022-09-09T05:04:49;17.70;76.40
52575;DHT22;38468;48.114;-1.684;2022-09-09T05:06:50;17.60;76.50
52575;DHT22;38468;48.114;-1.684;2022-09-09T05:08:51;17.70;76.40
52575;DHT22;38468;48.114;-1.684;2022-09-09T05:10:51;17.60;76.60
52575;DHT22;38468;48.114;-1.684;2022-09-09T05:12:53;17.60;76.60
52575;DHT22;38468;48.114;-1.684;2022-09-09T05:14:54;17.60;76.60
52575;DHT22;38468;48.114;-1.684;2022-09-09T05:16:54;17.60;76.50
52575;DHT22;38468;48.114;-1.684;2022-09-09T05:18:56;17.60;76.70
52575;DHT22;38468;48.114;-1.684;2022-09-09T05:21:00;17.60;76.60
52575;DHT22;38468;48.114;-1.684;2022-09-09T05:23:01;17.60;76.80
52575;DHT22;38468;48.114;-1.684;2022-09-09T05:25:01;17.70;76.70
52575;DHT22;38468;48.114;-1.684;2022-09-09T05:27:02;17.70;76.80
52575;DHT22;38468;48.114;-1.684;2022-09-09T05:29:03;17.70;76.60
52575;DHT22;38468;48.114;-1.684;2022-09-09T05:31:06;17.70;76.50
52575;DHT22;38468;48.114;-1.684;2022-09-09T05:33:12;17.70;76.70
52575;DHT22;38468;48.114;-1.684;2022-09-09T05:35:13;17.50;76.80
52575;DHT22;38468;48.114;-1.684;2022-09-09T05:37:14;17.60;76.90
52575;DHT22;38468;48.114;-1.684;2022-09-09T05:39:14;17.60;76.90
52575;DHT22;38468;48.114;-1.684;2022-09-09T05:41:16;17.50;76.80
52575;DHT22;38468;48.114;-1.684;2022-09-09T05:43:18;17.50;76.90
52575;DHT22;38468;48.114;-1.684;2022-09-09T05:45:20;17.50;77.00
52575;DHT22;38468;48.114;-1.684;2022-09-09T05:47:20;17.50;77.00
52575;DHT22;38468;48.114;-1.684;2022-09-09T05:49:21;17.50;77.00
52575;DHT22;38468;48.114;-1.684;2022-09-09T05:51:25;17.60;76.90
52575;DHT22;38468;48.114;-1.684;2022-09-09T05:53:27;17.60;76.90
52575;DHT22;38468;48.114;-1.684;2022-09-09T05:55:28;17.60;76.80
52575;DHT22;38468;48.114;-1.684;2022-09-09T05:57:28;17.50;76.40
52575;DHT22;38468;48.114;-1.684;2022-09-09T05:59:29;17.50;76.70
52575;DHT22;38468;48.114;-1.684;2022-09-09T06:01:34;17.50;76.80
52575;DHT22;38468;48.114;-1.684;2022-09-09T06:03:37;17.50;76.80
52575;DHT22;38468;48.114;-1.684;2022-09-09T06:05:38;17.40;77.00
52575;DHT22;38468;48.114;-1.684;2022-09-09T06:07:38;17.40;77.10
52575;DHT22;38468;48.114;-1.684;2022-09-09T06:09:42;17.40;77.00
52575;DHT22;38468;48.114;-1.684;2022-09-09T06:11:43;17.30;77.00
52575;DHT22;38468;48.114;-1.684;2022-09-09T06:13:44;17.30;77.10
52575;DHT22;38468;48.114;-1.684;2022-09-09T06:15:51;17.30;77.20
52575;DHT22;38468;48.114;-1.684;2022-09-09T06:17:55;17.30;77.30
52575;DHT22;38468;48.114;-1.684;2022-09-09T06:19:56;17.40;77.30
52575;DHT22;38468;48.114;-1.684;2022-09-09T06:21:57;17.40;77.10
52575;DHT22;38468;48.114;-1.684;2022-09-09T06:23:59;17.40;77.00
52575;DHT22;38468;48.114;-1.684;2022-09-09T06:26:03;17.40;77.00
52575;DHT22;38468;48.114;-1.684;2022-09-09T06:28:05;17.50;76.80
52575;DHT22;38468;48.114;-1.684;2022-09-09T06:30:07;17.40;77.20
52575;DHT22;38468;48.114;-1.684;2022-09-09T06:32:08;17.40;77.00
52575;DHT22;38468;48.114;-1.684;2022-09-09T06:34:09;17.40;77.00
52575;DHT22;38468;48.114;-1.684;2022-09-09T06:36:19;17.50;76.80
52575;DHT22;38468;48.114;-1.684;2022-09-09T06:38:20;17.50;76.90
52575;DHT22;38468;48.114;-1.684;2022-09-09T06:40:22;17.50;77.00
52575;DHT22;38468;48.114;-1.684;2022-09-09T06:42:23;17.60;77.10
52575;DHT22;38468;48.114;-1.684;2022-09-09T06:44:23;17.60;77.00
52575;DHT22;38468;48.114;-1.684;2022-09-09T06:46:31;17.60;76.80
52575;DHT22;38468;48.114;-1.684;2022-09-09T06:48:33;17.70;76.80
52575;DHT22;38468;48.114;-1.684;2022-09-09T06:50:34;17.70;76.40
52575;DHT22;38468;48.114;-1.684;2022-09-09T06:52:35;17.70;76.30
52575;DHT22;38468;48.114;-1.684;2022-09-09T06:54:35;17.70;76.60
52575;DHT22;38468;48.114;-1.684;2022-09-09T06:56:39;17.80;76.50
52575;DHT22;38468;48.114;-1.684;2022-09-09T06:58:42;17.80;76.70
52575;DHT22;38468;48.114;-1.684;2022-09-09T07:00:44;17.90;76.20
52575;DHT22;38468;48.114;-1.684;2022-09-09T07:02:45;18.00;76.40
52575;DHT22;38468;48.114;-1.684;2022-09-09T07:04:45;17.90;76.10
52575;DHT22;38468;48.114;-1.684;2022-09-09T07:06:46;18.00;76.20
52575;DHT22;38468;48.114;-1.684;2022-09-09T07:08:55;18.00;76.00
52575;DHT22;38468;48.114;-1.684;2022-09-09T07:11:05;18.10;75.70
52575;DHT22;38468;48.114;-1.684;2022-09-09T07:13:06;18.10;75.70
52575;DHT22;38468;48.114;-1.684;2022-09-09T07:15:08;18.20;75.70
52575;DHT22;38468;48.114;-1.684;2022-09-09T07:17:09;18.20;75.90
52575;DHT22;38468;48.114;-1.684;2022-09-09T07:19:10;18.30;76.00
52575;DHT22;38468;48.114;-1.684;2022-09-09T07:21:13;18.50;75.50
52575;DHT22;38468;48.114;-1.684;2022-09-09T07:23:14;18.50;75.40
52575;DHT22;38468;48.114;-1.684;2022-09-09T07:25:15;18.40;74.80
52575;DHT22;38468;48.114;-1.684;2022-09-09T07:27:18;18.30;74.80
52575;DHT22;38468;48.114;-1.684;2022-09-09T07:29:18;18.40;75.40
52575;DHT22;38468;48.114;-1.684;2022-09-09T07:31:21;18.40;74.70
52575;DHT22;38468;48.114;-1.684;2022-09-09T07:33:23;18.40;75.00
52575;DHT22;38468;48.114;-1.684;2022-09-09T07:35:24;18.50;74.50
52575;DHT22;38468;48.114;-1.684;2022-09-09T07:37:25;18.50;74.20
52575;DHT22;38468;48.114;-1.684;2022-09-09T07:39:25;18.50;73.80
52575;DHT22;38468;48.114;-1.684;2022-09-09T07:41:33;18.40;74.50
52575;DHT22;38468;48.114;-1.684;2022-09-09T07:43:34;18.40;74.60
52575;DHT22;38468;48.114;-1.684;2022-09-09T07:45:35;18.40;74.20
52575;DHT22;38468;48.114;-1.684;2022-09-09T07:47:36;18.30;74.20
52575;DHT22;38468;48.114;-1.684;2022-09-09T07:49:36;18.30;74.40
52575;DHT22;38468;48.114;-1.684;2022-09-09T07:51:42;18.40;74.20
52575;DHT22;38468;48.114;-1.684;2022-09-09T07:53:44;18.40;74.60
52575;DHT22;38468;48.114;-1.684;2022-09-09T07:55:45;18.40;74.50
52575;DHT22;38468;48.114;-1.684;2022-09-09T07:57:46;18.50;74.30
52575;DHT22;38468;48.114;-1.684;2022-09-09T07:59:47;18.70;74.00
52575;DHT22;38468;48.114;-1.684;2022-09-09T08:01:50;19.00;74.40
52575;DHT22;38468;48.114;-1.684;2022-09-09T08:04:03;19.00;73.80
52575;DHT22;38468;48.114;-1.684;2022-09-09T08:06:06;19.50;73.20
52575;DHT22;38468;48.114;-1.684;2022-09-09T08:08:10;19.50;70.70
52575;DHT22;38468;48.114;-1.684;2022-09-09T08:10:11;19.60;70.90
52575;DHT22;38468;48.114;-1.684;2022-09-09T08:12:12;19.80;71.70
52575;DHT22;38468;48.114;-1.684;2022-09-09T08:14:13;20.00;70.70
52575;DHT22;38468;48.114;-1.684;2022-09-09T08:16:18;19.70;70.10
52575;DHT22;38468;48.114;-1.684;2022-09-09T08:18:21;19.70;69.30
52575;DHT22;38468;48.114;-1.684;2022-09-09T08:20:23;19.50;70.20
52575;DHT22;38468;48.114;-1.684;2022-09-09T08:22:24;19.50;70.50
52575;DHT22;38468;48.114;-1.684;2022-09-09T08:24:24;19.30;69.90
52575;DHT22;38468;48.114;-1.684;2022-09-09T08:26:28;19.30;70.40
52575;DHT22;38468;48.114;-1.684;2022-09-09T08:28:28;19.30;70.40
52575;DHT22;38468;48.114;-1.684;2022-09-09T08:30:29;19.10;69.80
52575;DHT22;38468;48.114;-1.684;2022-09-09T08:32:30;18.90;70.30
52575;DHT22;38468;48.114;-1.684;2022-09-09T08:34:31;19.00;71.20
52575;DHT22;38468;48.114;-1.684;2022-09-09T08:36:34;19.20;71.00
52575;DHT22;38468;48.114;-1.684;2022-09-09T08:38:35;19.40;70.50
52575;DHT22;38468;48.114;-1.684;2022-09-09T08:40:40;19.50;70.90
52575;DHT22;38468;48.114;-1.684;2022-09-09T08:42:50;19.70;70.80
52575;DHT22;38468;48.114;-1.684;2022-09-09T08:52:16;19.70;68.90
52575;DHT22;38468;48.114;-1.684;2022-09-09T08:54:19;19.80;70.00
52575;DHT22;38468;48.114;-1.684;2022-09-09T08:56:22;19.90;68.10
52575;DHT22;38468;48.114;-1.684;2022-09-09T08:58:27;19.90;69.30
52575;DHT22;38468;48.114;-1.684;2022-09-09T09:00:50;20.00;69.10
52575;DHT22;38468;48.114;-1.684;2022-09-09T09:05:31;20.30;68.50
52575;DHT22;38468;48.114;-1.684;2022-09-09T09:12:41;20.90;67.80
52575;DHT22;38468;48.114;-1.684;2022-09-09T09:14:43;20.90;67.50
52575;DHT22;38468;48.114;-1.684;2022-09-09T09:16:53;21.00;66.70
52575;DHT22;38468;48.114;-1.684;2022-09-09T09:18:55;21.00;67.30
52575;DHT22;38468;48.114;-1.684;2022-09-09T09:21:13;21.10;66.90
52575;DHT22;38468;48.114;-1.684;2022-09-09T09:23:24;20.70;65.30
52575;DHT22;38468;48.114;-1.684;2022-09-09T09:25:31;20.70;66.20
52575;DHT22;38468;48.114;-1.684;2022-09-09T09:27:47;20.80;66.80
52575;DHT22;38468;48.114;-1.684;2022-09-09T09:29:50;20.60;65.20
52575;DHT22;38468;48.114;-1.684;2022-09-09T09:31:56;20.60;65.90
52575;DHT22;38468;48.114;-1.684;2022-09-09T09:33:59;20.60;65.50
52575;DHT22;38468;48.114;-1.684;2022-09-09T09:36:00;20.50;66.00
52575;DHT22;38468;48.114;-1.684;2022-09-09T09:38:15;20.70;66.30
52575;DHT22;38468;48.114;-1.684;2022-09-09T09:40:19;20.80;66.30
52575;DHT22;38468;48.114;-1.684;2022-09-09T09:42:20;20.90;65.00
52575;DHT22;38468;48.114;-1.684;2022-09-09T09:44:22;21.00;65.80
52575;DHT22;38468;48.114;-1.684;2022-09-09T09:46:24;21.00;65.60
52575;DHT22;38468;48.114;-1.684;2022-09-09T09:48:27;20.80;64.40
52575;DHT22;38468;48.114;-1.684;2022-09-09T09:50:28;20.70;64.70
52575;DHT22;38468;48.114;-1.684;2022-09-09T09:52:30;20.70;64.30
52575;DHT22;38468;48.114;-1.684;2022-09-09T09:54:39;20.70;64.40
52575;DHT22;38468;48.114;-1.684;2022-09-09T09:56:43;20.80;65.00
52575;DHT22;38468;48.114;-1.684;2022-09-09T10:00:50;21.00;64.40
52575;DHT22;38468;48.114;-1.684;2022-09-09T10:02:51;21.00;63.90
52575;DHT22;38468;48.114;-1.684;2022-09-09T10:05:24;21.00;64.60
52575;DHT22;38468;48.114;-1.684;2022-09-09T10:07:25;21.20;64.40
52575;DHT22;38468;48.114;-1.684;2022-09-09T10:09:28;21.30;63.00
52575;DHT22;38468;48.114;-1.684;2022-09-09T10:11:44;21.40;64.40
52575;DHT22;38468;48.114;-1.684;2022-09-09T10:18:45;21.60;63.10
52575;DHT22;38468;48.114;-1.684;2022-09-09T10:25:56;21.90;62.10
52575;DHT22;38468;48.114;-1.684;2022-09-09T10:28:29;21.70;61.30
52575;DHT22;38468;48.114;-1.684;2022-09-09T10:34:56;21.60;63.00
52575;DHT22;38468;48.114;-1.684;2022-09-09T10:36:58;21.70;62.70
52575;DHT22;38468;48.114;-1.684;2022-09-09T10:48:29;21.30;62.80
52575;DHT22;38468;48.114;-1.684;2022-09-09T10:57:08;21.50;62.10
52575;DHT22;38468;48.114;-1.684;2022-09-09T10:59:19;21.70;62.90
52575;DHT22;38468;48.114;-1.684;2022-09-09T11:01:27;21.90;62.60
52575;DHT22;38468;48.114;-1.684;2022-09-09T11:03:29;22.00;62.90
52575;DHT22;38468;48.114;-1.684;2022-09-09T11:07:44;22.30;61.30
52575;DHT22;38468;48.114;-1.684;2022-09-09T11:09:50;22.20;60.50
52575;DHT22;38468;48.114;-1.684;2022-09-09T11:11:54;21.70;60.80
52575;DHT22;38468;48.114;-1.684;2022-09-09T11:14:03;21.70;61.70
52575;DHT22;38468;48.114;-1.684;2022-09-09T11:18:45;22.00;62.00
52575;DHT22;38468;48.114;-1.684;2022-09-09T11:20:50;22.20;61.70
52575;DHT22;38468;48.114;-1.684;2022-09-09T11:23:21;22.20;61.00
52575;DHT22;38468;48.114;-1.684;2022-09-09T11:25:34;22.10;60.60
52575;DHT22;38468;48.114;-1.684;2022-09-09T11:30:22;22.20;60.60
52575;DHT22;38468;48.114;-1.684;2022-09-09T11:32:47;22.20;58.90
52575;DHT22;38468;48.114;-1.684;2022-09-09T11:37:44;21.70;59.50
52575;DHT22;38468;48.114;-1.684;2022-09-09T11:40:17;21.90;59.50
52575;DHT22;38468;48.114;-1.684;2022-09-09T11:42:22;21.50;59.10
52575;DHT22;38468;48.114;-1.684;2022-09-09T11:44:28;21.60;59.90
52575;DHT22;38468;48.114;-1.684;2022-09-09T11:46:36;21.70;59.80
52575;DHT22;38468;48.114;-1.684;2022-09-09T11:48:43;21.80;60.10
52575;DHT22;38468;48.114;-1.684;2022-09-09T11:50:45;22.00;60.00
52575;DHT22;38468;48.114;-1.684;2022-09-09T11:52:47;22.00;59.50
52575;DHT22;38468;48.114;-1.684;2022-09-09T11:54:49;22.10;59.80
52575;DHT22;38468;48.114;-1.684;2022-09-09T11:56:50;22.20;59.60
52575;DHT22;38468;48.114;-1.684;2022-09-09T11:59:05;22.00;59.00
52575;DHT22;38468;48.114;-1.684;2022-09-09T12:01:14;21.50;58.10
52575;DHT22;38468;48.114;-1.684;2022-09-09T12:03:44;21.40;59.00
52575;DHT22;38468;48.114;-1.684;2022-09-09T12:05:46;21.60;58.80
52575;DHT22;38468;48.114;-1.684;2022-09-09T12:07:57;21.60;58.70
52575;DHT22;38468;48.114;-1.684;2022-09-09T12:10:03;21.70;58.30
52575;DHT22;38468;48.114;-1.684;2022-09-09T12:12:22;21.70;58.60
52575;DHT22;38468;48.114;-1.684;2022-09-09T12:16:38;21.50;59.20
52575;DHT22;38468;48.114;-1.684;2022-09-09T12:18:40;21.40;59.80
52575;DHT22;38468;48.114;-1.684;2022-09-09T12:30:10;23.20;59.70
52575;DHT22;38468;48.114;-1.684;2022-09-09T12:32:23;23.50;58.70
52575;DHT22;38468;48.114;-1.684;2022-09-09T12:36:34;23.80;56.70
52575;DHT22;38468;48.114;-1.684;2022-09-09T12:38:40;23.60;56.80
52575;DHT22;38468;48.114;-1.684;2022-09-09T12:40:41;23.60;56.50
52575;DHT22;38468;48.114;-1.684;2022-09-09T12:42:41;23.50;57.10
52575;DHT22;38468;48.114;-1.684;2022-09-09T12:44:57;23.40;56.10
52575;DHT22;38468;48.114;-1.684;2022-09-09T12:47:01;23.40;56.80
52575;DHT22;38468;48.114;-1.684;2022-09-09T12:49:03;23.30;57.00
52575;DHT22;38468;48.114;-1.684;2022-09-09T12:51:07;23.40;57.50
52575;DHT22;38468;48.114;-1.684;2022-09-09T12:53:26;23.50;57.90
52575;DHT22;38468;48.114;-1.684;2022-09-09T12:55:32;23.70;56.80
52575;DHT22;38468;48.114;-1.684;2022-09-09T12:57:37;23.70;57.00
52575;DHT22;38468;48.114;-1.684;2022-09-09T12:59:41;23.50;56.80
52575;DHT22;38468;48.114;-1.684;2022-09-09T13:01:42;23.70;57.50
52575;DHT22;38468;48.114;-1.684;2022-09-09T13:03:43;23.90;57.50
52575;DHT22;38468;48.114;-1.684;2022-09-09T13:05:48;24.20;57.40
52575;DHT22;38468;48.114;-1.684;2022-09-09T13:07:49;24.20;55.50
52575;DHT22;38468;48.114;-1.684;2022-09-09T13:09:50;24.30;56.20
52575;DHT22;38468;48.114;-1.684;2022-09-09T13:11:52;24.30;53.90
52575;DHT22;38468;48.114;-1.684;2022-09-09T13:13:57;24.40;54.20
52575;DHT22;38468;48.114;-1.684;2022-09-09T13:16:00;24.30;54.30
52575;DHT22;38468;48.114;-1.684;2022-09-09T13:18:06;24.10;52.00
52575;DHT22;38468;48.114;-1.684;2022-09-09T13:20:17;23.70;51.60
52575;DHT22;38468;48.114;-1.684;2022-09-09T13:22:31;23.60;51.90
52575;DHT22;38468;48.114;-1.684;2022-09-09T13:24:34;23.60;53.00
52575;DHT22;38468;48.114;-1.684;2022-09-09T13:26:35;23.70;53.90
52575;DHT22;38468;48.114;-1.684;2022-09-09T13:28:35;23.70;53.60
52575;DHT22;38468;48.114;-1.684;2022-09-09T13:30:37;23.80;53.90
52575;DHT22;38468;48.114;-1.684;2022-09-09T13:32:41;23.90;53.50
52575;DHT22;38468;48.114;-1.684;2022-09-09T13:34:54;23.70;53.90
52575;DHT22;38468;48.114;-1.684;2022-09-09T13:37:34;23.60;54.10
52575;DHT22;38468;48.114;-1.684;2022-09-09T13:39:37;23.40;56.70
52575;DHT22;38468;48.114;-1.684;2022-09-09T13:41:45;23.30;58.90
52575;DHT22;38468;48.114;-1.684;2022-09-09T13:43:46;23.20;59.10
52575;DHT22;38468;48.114;-1.684;2022-09-09T13:45:59;23.30;59.80
52575;DHT22;38468;48.114;-1.684;2022-09-09T13:48:08;23.00;61.60
52575;DHT22;38468;48.114;-1.684;2022-09-09T13:50:24;23.00;60.70
52575;DHT22;38468;48.114;-1.684;2022-09-09T13:52:27;23.00;61.00
52575;DHT22;38468;48.114;-1.684;2022-09-09T13:54:31;22.80;62.10
52575;DHT22;38468;48.114;-1.684;2022-09-09T13:56:33;22.70;61.70
52575;DHT22;38468;48.114;-1.684;2022-09-09T13:58:33;22.50;62.40
52575;DHT22;38468;48.114;-1.684;2022-09-09T14:00:34;22.30;62.90
52575;DHT22;38468;48.114;-1.684;2022-09-09T14:02:35;22.30;62.70
52575;DHT22;38468;48.114;-1.684;2022-09-09T14:04:36;22.10;63.70
52575;DHT22;38468;48.114;-1.684;2022-09-09T14:06:37;22.10;63.70
52575;DHT22;38468;48.114;-1.684;2022-09-09T14:08:38;22.00;64.10
52575;DHT22;38468;48.114;-1.684;2022-09-09T14:10:40;21.90;64.20
52575;DHT22;38468;48.114;-1.684;2022-09-09T14:12:41;21.80;64.30
52575;DHT22;38468;48.114;-1.684;2022-09-09T14:14:42;21.90;64.30
52575;DHT22;38468;48.114;-1.684;2022-09-09T14:16:43;21.90;64.30
52575;DHT22;38468;48.114;-1.684;2022-09-09T14:18:44;22.00;64.00
52575;DHT22;38468;48.114;-1.684;2022-09-09T14:20:45;22.10;64.20
52575;DHT22;38468;48.114;-1.684;2022-09-09T14:22:46;22.20;64.10
52575;DHT22;38468;48.114;-1.684;2022-09-09T14:24:46;22.30;64.20
52575;DHT22;38468;48.114;-1.684;2022-09-09T14:26:47;22.40;65.20
52575;DHT22;38468;48.114;-1.684;2022-09-09T14:28:48;22.60;64.60
52575;DHT22;38468;48.114;-1.684;2022-09-09T14:30:49;22.70;63.20
52575;DHT22;38468;48.114;-1.684;2022-09-09T14:32:49;22.60;63.50
52575;DHT22;38468;48.114;-1.684;2022-09-09T14:34:50;22.50;63.60
52575;DHT22;38468;48.114;-1.684;2022-09-09T14:36:50;22.60;63.80